Time;durP1;ratioP1;P1;durP2;ratioP2;P2;SDS_P1;SDS_P2;PMS_P1;PMS_P2;Temp;Humidity;BMP_temperature;BMP_pressure;BME280_temperature;BME280_humidity;BME280_pressure;Samples;Min_cycle;Max_cycle;Signal;HPM_P1;HPM_P2
2023/07/05 00:00:05;;;;;;;7.97;3.60;;;16.20;99.90;;;;;;6274707;22;20047;-78
2023/07/05 00:02:31;;;;;;;5.60;2.60;;;16.20;99.90;;;;;;6274464;22;20015;-78
2023/07/05 00:04:57;;;;;;;11.75;4.15;;;16.10;99.90;;;;;;6302021;22;20022;-78
2023/07/05 00:07:25;;;;;;;9.95;3.70;;;16.10;99.90;;;;;;6302020;22;20058;-78
2023/07/05 00:09:51;;;;;;;9.52;4.00;;;16.00;99.90;;;;;;6302592;22;20431;-78
2023/07/05 00:12:16;;;;;;;7.55;3.30;;;16.00;99.90;;;;;;6302755;22;20414;-78
2023/07/05 00:14:42;;;;;;;6.68;3.50;;;16.00;99.90;;;;;;6275064;22;20480;-78
2023/07/05 00:17:08;;;;;;;7.50;3.25;;;16.00;99.90;;;;;;6301475;22;20449;-78
2023/07/05 00:19:34;;;;;;;5.65;2.95;;;16.00;99.90;;;;;;6274060;22;20442;-78
2023/07/05 00:21:59;;;;;;;9.30;3.50;;;16.00;99.90;;;;;;6301775;22;20438;-78
2023/07/05 00:24:25;;;;;;;8.57;3.60;;;16.00;99.90;;;;;;6301685;22;20334;-78
2023/07/05 00:26:51;;;;;;;6.78;3.63;;;16.00;99.90;;;;;;6274768;22;20315;-78
2023/07/05 00:29:16;;;;;;;8.88;3.60;;;16.10;99.90;;;;;;6274174;22;20511;-78
2023/07/05 00:31:42;;;;;;;10.88;3.92;;;16.00;99.90;;;;;;6275090;22;20022;-78
2023/07/05 00:34:08;;;;;;;10.23;5.45;;;16.00;99.90;;;;;;6300867;22;20019;-78
2023/07/05 00:36:33;;;;;;;13.43;5.38;;;15.90;99.90;;;;;;6271931;22;20023;-78
2023/07/05 00:38:59;;;;;;;11.50;4.50;;;15.90;99.90;;;;;;6249123;22;20044;-78
2023/07/05 00:41:25;;;;;;;15.23;5.20;;;15.90;99.90;;;;;;6301457;22;20007;-78
2023/07/05 00:43:50;;;;;;;10.80;3.92;;;15.90;99.90;;;;;;6301150;22;20363;-78
2023/07/05 00:46:26;;;;;;;9.45;3.63;;;15.80;99.90;;;;;;6301766;22;20304;-78
2023/07/05 00:49:02;;;;;;;11.50;3.85;;;15.80;99.90;;;;;;6301812;22;20406;-78
2023/07/05 00:51:42;;;;;;;8.35;4.30;;;15.80;99.90;;;;;;6302439;22;20019;-78
2023/07/05 00:54:08;;;;;;;11.00;3.95;;;15.80;99.90;;;;;;6301782;22;20468;-78
2023/07/05 00:56:42;;;;;;;10.48;4.97;;;15.80;99.90;;;;;;6301169;22;20007;-79
2023/07/05 00:59:11;;;;;;;9.38;4.15;;;15.80;99.90;;;;;;6274098;22;20636;-78
2023/07/05 01:01:38;;;;;;;10.50;3.92;;;15.80;99.90;;;;;;6302117;22;20011;-79
2023/07/05 01:04:06;;;;;;;10.55;4.65;;;15.80;99.90;;;;;;6273392;22;20011;-79
2023/07/05 01:06:32;;;;;;;10.35;4.45;;;15.80;99.90;;;;;;6302275;22;20007;-79
2023/07/05 01:08:58;;;;;;;12.45;4.18;;;15.80;99.90;;;;;;6274398;22;20023;-79
2023/07/05 01:11:32;;;;;;;7.93;3.65;;;15.80;99.90;;;;;;6302023;22;20439;-78
2023/07/05 01:14:10;;;;;;;10.55;4.85;;;15.80;99.90;;;;;;6301548;22;20038;-78
2023/07/05 01:16:57;;;;;;;10.30;3.90;;;15.80;99.90;;;;;;6274215;22;20049;-79
2023/07/05 01:19:28;;;;;;;10.73;4.53;;;15.80;99.90;;;;;;6301481;22;20011;-79
2023/07/05 01:22:05;;;;;;;11.02;4.32;;;15.80;99.90;;;;;;6274160;22;20097;-79
2023/07/05 01:25:08;;;;;;;12.20;4.90;;;15.80;99.90;;;;;;6301255;22;20007;-78
2023/07/05 01:27:54;;;;;;;8.40;4.18;;;15.80;99.90;;;;;;6301979;22;20050;-78
2023/07/05 01:30:44;;;;;;;14.02;5.97;;;15.80;99.90;;;;;;6272381;22;20438;-78
2023/07/05 01:33:22;;;;;;;13.48;5.75;;;15.80;99.90;;;;;;6273233;22;20035;-78
2023/07/05 01:35:55;;;;;;;10.25;5.40;;;15.80;99.90;;;;;;6273243;22;20323;-78
2023/07/05 01:38:22;;;;;;;8.88;4.32;;;15.80;99.90;;;;;;6273856;22;20023;-78
2023/07/05 01:40:57;;;;;;;15.30;6.75;;;15.80;99.90;;;;;;6273984;22;20434;-78
2023/07/05 01:43:24;;;;;;;13.35;6.25;;;15.80;99.90;;;;;;6273261;22;20426;-78
2023/07/05 01:46:26;;;;;;;14.13;8.00;;;15.90;99.90;;;;;;6274204;22;20452;-78
2023/07/05 01:49:07;;;;;;;16.37;7.70;;;15.80;99.90;;;;;;6220058;22;20025;-78
2023/07/05 01:51:32;;;;;;;14.07;6.78;;;15.80;99.90;;;;;;6273960;22;20011;-78
2023/07/05 01:54:09;;;;;;;14.52;6.60;;;15.70;99.90;;;;;;6273831;22;20168;-78
2023/07/05 01:56:51;;;;;;;12.68;6.22;;;15.80;99.90;;;;;;6273962;22;20089;-78
2023/07/05 01:59:22;;;;;;;15.10;7.97;;;15.70;99.90;;;;;;6301694;22;20011;-78
2023/07/05 02:01:51;;;;;;;15.07;7.57;;;15.70;99.90;;;;;;6302103;22;20093;-78
2023/07/05 02:04:23;;;;;;;17.85;7.07;;;15.70;99.90;;;;;;6247505;22;20430;-78
2023/07/05 02:06:51;;;;;;;13.02;7.63;;;15.70;99.90;;;;;;6274083;22;20021;-78
2023/07/05 02:09:16;;;;;;;12.57;7.13;;;15.70;99.90;;;;;;6301686;22;20015;-78
2023/07/05 02:11:42;;;;;;;14.80;8.15;;;15.60;99.90;;;;;;6274545;22;20854;-78
2023/07/05 02:14:11;;;;;;;13.15;9.30;;;15.60;99.90;;;;;;6273988;22;20070;-78
2023/07/05 02:16:38;;;;;;;12.95;7.95;;;15.60;99.90;;;;;;6301099;22;20012;-78
2023/07/05 02:19:06;;;;;;;11.35;7.68;;;15.70;99.90;;;;;;6246701;22;20435;-78
2023/07/05 02:21:32;;;;;;;15.00;8.98;;;15.60;99.90;;;;;;6274009;22;20011;-78
2023/07/05 02:23:58;;;;;;;16.65;9.15;;;15.50;99.90;;;;;;6272687;22;20050;-77
2023/07/05 02:26:24;;;;;;;18.15;9.73;;;15.60;99.90;;;;;;6274219;22;20019;-79
2023/07/05 02:28:59;;;;;;;16.55;9.98;;;15.50;99.90;;;;;;6248483;22;20015;-78
2023/07/05 02:31:29;;;;;;;14.10;9.30;;;15.50;99.90;;;;;;6273670;22;20084;-78
2023/07/05 02:33:55;;;;;;;14.32;8.52;;;15.50;99.90;;;;;;6248021;22;20103;-78
2023/07/05 02:36:21;;;;;;;14.50;9.10;;;15.40;99.90;;;;;;6273655;22;20011;-78
2023/07/05 02:38:47;;;;;;;17.83;10.73;;;15.40;99.90;;;;;;6301725;22;20368;-78
2023/07/05 02:41:21;;;;;;;18.25;9.93;;;15.40;99.90;;;;;;6274341;22;20016;-77
2023/07/05 02:43:47;;;;;;;15.70;10.32;;;15.40;99.90;;;;;;6301493;22;20026;-77
2023/07/05 02:46:13;;;;;;;15.43;10.18;;;15.40;99.90;;;;;;6300676;22;20015;-77
2023/07/05 02:48:39;;;;;;;16.48;8.60;;;15.40;99.90;;;;;;6301612;22;20019;-77
2023/07/05 02:51:07;;;;;;;14.48;9.10;;;15.40;99.90;;;;;;6273651;22;20439;-77
2023/07/05 02:53:35;;;;;;;12.48;7.50;;;15.40;99.90;;;;;;6274945;22;20015;-77
2023/07/05 02:56:01;;;;;;;12.85;7.15;;;15.40;99.90;;;;;;6302918;22;20022;-78
2023/07/05 02:58:26;;;;;;;14.80;8.60;;;15.40;99.90;;;;;;6275066;22;20019;-77
2023/07/05 03:00:55;;;;;;;16.90;9.95;;;15.40;99.90;;;;;;6302945;22;20503;-77
2023/07/05 03:03:26;;;;;;;16.30;9.73;;;15.40;99.90;;;;;;6303582;22;20015;-78
2023/07/05 03:06:01;;;;;;;12.18;8.45;;;15.40;99.90;;;;;;6275391;22;20385;-78
2023/07/05 03:08:30;;;;;;;15.43;9.93;;;15.40;99.90;;;;;;6275637;22;20026;-78
2023/07/05 03:11:04;;;;;;;20.45;10.10;;;15.40;99.90;;;;;;6303434;22;20045;-78
2023/07/05 03:13:32;;;;;;;18.75;9.88;;;15.40;99.90;;;;;;6302948;22;20011;-78
2023/07/05 03:16:00;;;;;;;30.55;12.00;;;15.40;99.90;;;;;;6274414;22;20015;-78
2023/07/05 03:18:27;;;;;;;20.40;10.00;;;15.40;99.90;;;;;;6302586;22;20015;-78
2023/07/05 03:20:53;;;;;;;19.48;11.23;;;15.30;99.90;;;;;;6274973;22;20473;-78
2023/07/05 03:23:20;;;;;;;16.30;10.40;;;15.30;99.90;;;;;;6303687;22;20057;-78
2023/07/05 03:25:57;;;;;;;15.82;10.02;;;15.30;99.90;;;;;;6275781;22;20051;-78
2023/07/05 03:28:25;;;;;;;15.80;11.07;;;15.30;99.90;;;;;;6301712;22;20015;-78
2023/07/05 03:31:03;;;;;;;16.67;10.55;;;15.20;99.90;;;;;;6275848;22;20015;-78
2023/07/05 03:33:30;;;;;;;13.75;10.02;;;15.20;99.90;;;;;;6303288;22;20019;-78
2023/07/05 03:36:01;;;;;;;17.95;9.65;;;15.20;99.90;;;;;;6301904;22;20019;-78
2023/07/05 03:38:29;;;;;;;14.65;9.27;;;15.30;99.90;;;;;;6302059;22;20022;-78
2023/07/05 03:41:18;;;;;;;16.10;9.80;;;15.20;99.90;;;;;;6275433;22;20342;-78
2023/07/05 03:43:46;;;;;;;14.60;9.18;;;15.20;99.90;;;;;;6302757;22;20022;-78
2023/07/05 03:46:15;;;;;;;15.13;9.77;;;15.30;99.90;;;;;;6302724;22;20086;-78
2023/07/05 03:48:43;;;;;;;16.20;10.40;;;15.30;99.90;;;;;;6274899;22;20011;-78
2023/07/05 03:51:11;;;;;;;16.02;10.23;;;15.30;99.90;;;;;;6275570;22;20019;-78
2023/07/05 03:53:37;;;;;;;13.95;8.73;;;15.30;99.90;;;;;;6302598;22;20329;-78
2023/07/05 03:56:08;;;;;;;15.93;10.35;;;15.20;99.90;;;;;;6302044;22;20011;-78
2023/07/05 03:58:34;;;;;;;14.68;8.18;;;15.30;99.90;;;;;;6301788;22;20011;-78
2023/07/05 04:01:03;;;;;;;19.55;11.05;;;15.30;99.90;;;;;;6275216;22;20019;-78
2023/07/05 04:03:29;;;;;;;14.02;9.15;;;15.30;99.90;;;;;;6275374;22;20030;-78
2023/07/05 04:05:54;;;;;;;16.58;9.90;;;15.30;99.90;;;;;;6302045;22;20007;-77
2023/07/05 04:08:20;;;;;;;15.68;9.05;;;15.30;99.90;;;;;;6274330;22;20022;-78
2023/07/05 04:10:47;;;;;;;18.38;10.25;;;15.20;99.90;;;;;;6275092;22;20022;-78
2023/07/05 04:13:13;;;;;;;16.27;10.30;;;15.20;99.90;;;;;;6302295;22;20106;-77
2023/07/05 04:15:39;;;;;;;13.60;9.90;;;15.20;99.90;;;;;;6301398;22;20437;-77
2023/07/05 04:18:05;;;;;;;16.13;10.52;;;15.10;99.90;;;;;;6301000;22;20012;-78
2023/07/05 04:20:31;;;;;;;14.38;10.23;;;15.20;99.90;;;;;;6303171;22;20064;-77
2023/07/05 04:22:59;;;;;;;17.00;11.30;;;15.10;99.90;;;;;;6274369;22;20021;-76
2023/07/05 04:25:25;;;;;;;15.10;10.80;;;15.10;99.90;;;;;;6301568;22;20078;-77
2023/07/05 04:27:51;;;;;;;15.95;9.57;;;15.10;99.90;;;;;;6274004;22;20457;-77
2023/07/05 04:30:16;;;;;;;15.20;10.40;;;15.20;99.90;;;;;;6273925;22;20019;-77
2023/07/05 04:32:45;;;;;;;15.93;10.18;;;15.20;99.90;;;;;;6273796;22;20449;-76
2023/07/05 04:35:11;;;;;;;16.75;10.07;;;15.30;99.90;;;;;;6272745;22;20049;-76
2023/07/05 04:37:36;;;;;;;16.50;10.95;;;15.20;99.90;;;;;;6274723;22;20012;-77
2023/07/05 04:40:03;;;;;;;12.88;9.43;;;15.20;99.90;;;;;;6273736;22;20429;-77
2023/07/05 04:42:29;;;;;;;13.57;8.52;;;15.20;99.90;;;;;;6248038;22;20015;-78
2023/07/05 04:44:55;;;;;;;15.73;8.80;;;15.20;99.90;;;;;;6302197;22;20082;-77
2023/07/05 04:47:21;;;;;;;14.68;8.95;;;15.20;99.90;;;;;;6274992;22;20552;-77
2023/07/05 04:49:47;;;;;;;14.25;7.93;;;15.20;99.90;;;;;;6274814;22;20065;-77
2023/07/05 04:52:13;;;;;;;14.35;7.30;;;15.20;99.90;;;;;;6301646;22;20085;-77
2023/07/05 04:54:39;;;;;;;12.32;7.38;;;15.20;99.90;;;;;;6301075;22;20073;-78
2023/07/05 04:57:05;;;;;;;11.52;7.70;;;15.30;99.90;;;;;;6301437;22;20015;-78
2023/07/05 04:59:30;;;;;;;10.88;6.85;;;15.30;99.90;;;;;;6302129;22;20068;-78
2023/07/05 05:01:56;;;;;;;10.13;7.05;;;15.30;99.90;;;;;;6272917;22;20412;-78
2023/07/05 05:04:29;;;;;;;10.68;5.30;;;15.30;99.90;;;;;;6300762;22;20017;-78
2023/07/05 05:06:55;;;;;;;6.93;4.38;;;15.30;99.90;;;;;;6273548;22;20011;-78
2023/07/05 05:09:21;;;;;;;10.05;4.78;;;15.20;99.90;;;;;;6301316;22;20007;-84
2023/07/05 05:11:47;;;;;;;5.55;3.58;;;15.20;99.90;;;;;;6274962;22;20041;-83
2023/07/05 05:14:15;;;;;;;7.30;4.28;;;15.10;99.90;;;;;;6302292;22;20088;-82
2023/07/05 05:16:41;;;;;;;8.10;4.10;;;15.10;99.90;;;;;;6273171;22;20015;-82
2023/07/05 05:19:09;;;;;;;9.07;4.13;;;15.10;99.90;;;;;;6273498;22;20019;-82
2023/07/05 05:21:35;;;;;;;8.27;3.60;;;15.00;99.90;;;;;;6302537;22;20045;-83
2023/07/05 05:24:01;;;;;;;8.40;4.03;;;15.00;99.90;;;;;;6247705;22;20018;-82
2023/07/05 05:26:26;;;;;;;7.90;3.80;;;15.00;99.90;;;;;;6273572;22;20007;-82
2023/07/05 05:28:53;;;;;;;7.07;4.00;;;14.90;99.90;;;;;;6274201;22;20023;-82
2023/07/05 05:31:18;;;;;;;8.45;4.35;;;14.80;99.90;;;;;;6273165;22;20102;-81
2023/07/05 05:33:44;;;;;;;5.82;4.03;;;14.80;99.90;;;;;;6273706;22;20054;-82
2023/07/05 05:36:10;;;;;;;9.52;4.40;;;14.70;99.90;;;;;;6301606;22;20015;-84
2023/07/05 05:38:36;;;;;;;8.48;4.25;;;14.60;99.90;;;;;;6248312;22;20015;-83
2023/07/05 05:41:07;;;;;;;6.72;3.97;;;14.60;99.90;;;;;;6272878;22;20007;-83
2023/07/05 05:43:33;;;;;;;8.25;4.88;;;14.60;99.90;;;;;;6248027;22;20016;-84
2023/07/05 05:45:59;;;;;;;8.68;4.57;;;14.60;99.90;;;;;;6300727;22;20060;-84
2023/07/05 05:48:26;;;;;;;7.55;4.63;;;14.60;99.90;;;;;;6275220;22;20016;-84
2023/07/05 05:50:52;;;;;;;5.65;4.05;;;14.60;99.90;;;;;;6302447;22;20011;-84
2023/07/05 05:53:18;;;;;;;7.47;4.38;;;14.70;99.90;;;;;;6273076;22;20382;-86
2023/07/05 05:55:44;;;;;;;8.65;4.85;;;14.80;99.90;;;;;;6304026;22;20026;-87
2023/07/05 05:58:12;;;;;;;8.82;4.57;;;14.80;99.90;;;;;;6275680;22;20011;-88
2023/07/05 06:00:38;;;;;;;7.10;4.25;;;14.80;99.90;;;;;;6277072;22;20022;-89
2023/07/05 06:03:05;;;;;;;8.77;4.00;;;14.90;99.90;;;;;;6304152;22;20011;-88
2023/07/05 06:05:41;;;;;;;7.47;3.85;;;14.90;99.90;;;;;;6304448;22;20015;-87
2023/07/05 06:08:07;;;;;;;7.17;4.07;;;15.00;99.90;;;;;;6276995;22;20022;-88
2023/07/05 06:10:33;;;;;;;8.30;4.25;;;15.00;99.90;;;;;;6276221;22;20018;-85
2023/07/05 06:13:00;;;;;;;8.75;4.30;;;15.10;99.90;;;;;;6275699;22;20046;-86
2023/07/05 06:15:26;;;;;;;12.20;4.00;;;15.10;99.90;;;;;;6247663;22;20018;-87
2023/07/05 06:17:53;;;;;;;7.38;3.65;;;15.10;99.90;;;;;;6300192;22;20077;-87
2023/07/05 06:20:19;;;;;;;6.45;3.13;;;15.00;99.90;;;;;;6274903;22;20015;-86
2023/07/05 06:22:44;;;;;;;7.15;3.40;;;15.00;99.90;;;;;;6274486;22;20118;-87
2023/07/05 06:25:10;;;;;;;4.88;3.15;;;15.00;99.90;;;;;;6273769;22;20462;-87
2023/07/05 06:27:36;;;;;;;8.73;3.72;;;15.30;99.90;;;;;;6275437;22;20015;-87
2023/07/05 06:30:03;;;;;;;6.85;3.25;;;15.10;99.90;;;;;;6304040;22;20011;-87
2023/07/05 06:32:29;;;;;;;7.63;3.88;;;15.10;99.90;;;;;;6275827;22;20018;-87
2023/07/05 06:34:55;;;;;;;7.30;3.40;;;15.20;99.90;;;;;;6303720;22;20007;-87
2023/07/05 06:37:21;;;;;;;7.90;3.65;;;15.20;99.90;;;;;;6275778;22;20086;-87
2023/07/05 06:39:46;;;;;;;6.45;3.42;;;15.30;99.90;;;;;;6250189;22;20011;-87
2023/07/05 06:42:12;;;;;;;6.55;3.13;;;15.30;99.90;;;;;;6276218;22;20367;-88
2023/07/05 06:44:38;;;;;;;10.75;3.67;;;15.30;99.90;;;;;;6275556;22;20086;-88
2023/07/05 06:47:04;;;;;;;7.35;3.10;;;15.30;99.90;;;;;;6277106;22;20315;-88
2023/07/05 06:49:31;;;;;;;6.63;3.05;;;15.30;99.90;;;;;;6276996;22;20044;-89
2023/07/05 06:51:56;;;;;;;6.90;3.10;;;15.30;99.90;;;;;;6274227;22;20042;-88
2023/07/05 06:54:22;;;;;;;6.10;2.97;;;15.30;99.90;;;;;;6303640;22;20038;-88
2023/07/05 06:56:47;;;;;;;6.72;3.15;;;15.30;99.90;;;;;;6276599;22;20022;-87
2023/07/05 06:59:13;;;;;;;6.50;2.75;;;15.40;99.90;;;;;;6275419;22;20015;-87
2023/07/05 07:01:39;;;;;;;7.10;2.90;;;15.40;99.90;;;;;;6303813;22;20015;-89
2023/07/05 07:04:05;;;;;;;8.93;3.22;;;15.40;99.90;;;;;;6276070;22;20097;-88
2023/07/05 07:06:32;;;;;;;7.97;3.25;;;15.40;99.90;;;;;;6250050;22;20011;-88
2023/07/05 07:08:58;;;;;;;7.97;2.90;;;15.40;99.90;;;;;;6275798;22;20011;-88
2023/07/05 07:11:24;;;;;;;8.60;3.17;;;15.50;99.90;;;;;;6275872;22;20072;-89
2023/07/05 07:13:50;;;;;;;8.05;2.97;;;15.50;99.90;;;;;;6303973;22;20011;-89
2023/07/05 07:16:17;;;;;;;7.20;2.95;;;15.50;99.90;;;;;;6249896;22;20022;-88
2023/07/05 07:18:48;;;;;;;6.93;2.70;;;15.60;99.90;;;;;;6273868;22;20091;-87
2023/07/05 07:21:16;;;;;;;7.75;3.30;;;15.50;99.90;;;;;;6273989;22;20030;-89
2023/07/05 07:23:44;;;;;;;8.00;3.10;;;15.60;99.90;;;;;;6249718;22;20015;-87
2023/07/05 07:26:12;;;;;;;8.10;2.75;;;15.50;99.90;;;;;;6249958;22;20737;-90
2023/07/05 07:28:39;;;;;;;5.65;2.58;;;15.70;99.90;;;;;;6275843;22;20015;-90
2023/07/05 07:31:14;;;;;;;8.45;3.22;;;15.40;99.90;;;;;;6249936;22;20015;-87
2023/07/05 07:33:40;;;;;;;6.05;2.70;;;15.40;99.90;;;;;;6274356;22;20019;-87
2023/07/05 07:36:11;;;;;;;5.28;2.60;;;15.50;99.90;;;;;;6302283;22;20054;-87
2023/07/05 07:38:37;;;;;;;10.90;2.78;;;15.60;99.90;;;;;;6275397;22;20480;-91
2023/07/05 07:41:03;;;;;;;6.55;2.50;;;15.60;99.90;;;;;;6279777;22;20029;-88
2023/07/05 07:43:28;;;;;;;6.25;2.22;;;15.60;99.90;;;;;;6275199;22;20402;-87
2023/07/05 07:45:54;;;;;;;5.82;2.78;;;15.70;99.90;;;;;;6301511;22;20429;-88
2023/07/05 07:48:20;;;;;;;6.32;2.50;;;15.60;99.90;;;;;;6302433;22;20060;-88
2023/07/05 07:50:49;;;;;;;5.80;2.55;;;15.50;99.90;;;;;;6302636;22;20030;-89
2023/07/05 07:53:15;;;;;;;6.43;2.83;;;15.40;99.90;;;;;;6274884;22;20047;-87
2023/07/05 07:55:41;;;;;;;5.68;2.50;;;15.20;99.90;;;;;;6302259;22;20016;-87
2023/07/05 07:58:08;;;;;;;4.53;1.83;;;15.10;99.90;;;;;;6275673;22;20359;-87
2023/07/05 08:00:34;;;;;;;5.63;1.90;;;14.90;99.90;;;;;;6276025;22;20092;-85
2023/07/05 08:03:00;;;;;;;6.70;1.48;;;14.70;99.90;;;;;;6274747;22;20003;-87
2023/07/05 08:05:28;;;;;;;4.88;1.17;;;14.50;99.90;;;;;;6274374;22;20038;-84
2023/07/05 08:07:54;;;;;;;4.18;0.93;;;14.30;99.90;;;;;;6249117;22;20466;-84
2023/07/05 08:10:20;;;;;;;2.75;0.90;;;14.10;99.90;;;;;;6274748;22;20478;-83
2023/07/05 08:12:45;;;;;;;3.15;1.00;;;14.00;99.90;;;;;;6303503;22;20007;-84
2023/07/05 08:15:11;;;;;;;3.53;1.23;;;13.80;99.90;;;;;;6301041;22;20063;-84
2023/07/05 08:17:37;;;;;;;2.22;0.68;;;13.70;99.90;;;;;;6248730;22;20037;-84
2023/07/05 08:20:03;;;;;;;2.85;0.70;;;13.70;99.90;;;;;;6274493;22;20015;-84
2023/07/05 08:22:29;;;;;;;2.95;0.90;;;13.60;99.90;;;;;;6301454;22;20014;-83
2023/07/05 08:24:55;;;;;;;2.05;0.70;;;13.50;99.90;;;;;;6274384;22;20022;-83
2023/07/05 08:27:21;;;;;;;2.25;0.80;;;13.50;99.90;;;;;;6275061;22;20019;-83
2023/07/05 08:29:47;;;;;;;3.45;1.08;;;13.40;99.90;;;;;;6275560;22;20015;-84
2023/07/05 08:32:13;;;;;;;1.80;0.60;;;13.30;99.90;;;;;;6273757;22;20117;-83
2023/07/05 08:34:38;;;;;;;2.88;0.80;;;13.20;99.90;;;;;;6300880;22;20019;-83
2023/07/05 08:37:04;;;;;;;2.22;0.50;;;13.20;99.90;;;;;;6301605;22;20202;-83
2023/07/05 08:39:30;;;;;;;2.05;0.63;;;13.20;99.90;;;;;;6274422;22;20008;-88
2023/07/05 08:42:02;;;;;;;1.70;0.47;;;13.20;99.90;;;;;;6248696;22;20654;-83
2023/07/05 08:44:30;;;;;;;1.73;0.45;;;13.10;99.90;;;;;;6301050;22;20323;-83
2023/07/05 08:47:05;;;;;;;3.05;0.55;;;13.00;99.90;;;;;;6274365;22;20019;-83
2023/07/05 08:49:47;;;;;;;1.40;0.43;;;13.00;99.90;;;;;;6301384;22;20116;-84
2023/07/05 08:52:27;;;;;;;4.75;0.70;;;12.90;99.90;;;;;;6302121;22;20022;-83
2023/07/05 08:54:57;;;;;;;1.63;0.68;;;12.90;99.90;;;;;;6274315;22;20074;-85
2023/07/05 08:57:32;;;;;;;2.45;0.55;;;12.90;99.90;;;;;;6302320;22;20473;-83
2023/07/05 09:00:01;;;;;;;3.78;0.70;;;12.80;99.90;;;;;;6273354;22;20011;-85
2023/07/05 09:02:27;;;;;;;3.08;0.70;;;12.80;99.90;;;;;;6273344;22;20015;-83
2023/07/05 09:04:57;;;;;;;2.97;0.70;;;12.70;99.90;;;;;;6273422;22;20017;-83
2023/07/05 09:07:41;;;;;;;2.67;0.63;;;12.70;99.90;;;;;;6274722;22;20007;-86
2023/07/05 09:10:20;;;;;;;3.08;0.80;;;12.70;99.90;;;;;;6301157;22;20015;-83
2023/07/05 09:13:10;;;;;;;5.18;1.35;;;12.70;99.90;;;;;;6275533;22;20090;-83
2023/07/05 09:15:41;;;;;;;4.10;0.88;;;12.70;99.90;;;;;;6274957;22;20015;-86
2023/07/05 09:18:13;;;;;;;4.53;1.15;;;12.70;99.90;;;;;;6272218;22;20020;-85
2023/07/05 09:21:03;;;;;;;4.90;0.80;;;12.70;99.90;;;;;;6274049;22;20015;-87
2023/07/05 09:23:45;;;;;;;4.45;1.08;;;12.80;99.90;;;;;;6301052;22;20011;-83
2023/07/05 09:26:27;;;;;;;3.75;1.35;;;12.80;99.90;;;;;;6247071;22;20015;-83
2023/07/05 09:29:14;;;;;;;6.13;1.08;;;12.90;99.90;;;;;;6274888;22;20011;-83
2023/07/05 09:31:42;;;;;;;5.47;1.15;;;13.10;99.90;;;;;;6301964;22;20015;-84
2023/07/05 09:34:17;;;;;;;5.47;1.17;;;13.20;99.90;;;;;;6273975;22;20025;-83
2023/07/05 09:36:46;;;;;;;7.93;1.33;;;13.20;99.90;;;;;;6275377;22;20023;-83
2023/07/05 09:39:41;;;;;;;8.55;1.35;;;13.20;99.90;;;;;;6274115;22;20081;-83
2023/07/05 09:42:17;;;;;;;7.95;1.42;;;13.20;99.90;;;;;;6301690;22;20012;-83
2023/07/05 09:44:43;;;;;;;6.47;1.10;;;13.30;99.90;;;;;;6275097;22;20082;-84
2023/07/05 09:47:09;;;;;;;10.77;1.85;;;13.40;99.90;;;;;;6301497;22;20505;-83
2023/07/05 09:49:35;;;;;;;11.63;1.45;;;13.50;99.90;;;;;;6274750;22;20022;-84
2023/07/05 09:52:01;;;;;;;9.40;2.15;;;13.60;99.90;;;;;;6301431;22;20037;-85
2023/07/05 09:54:30;;;;;;;3.97;1.38;;;13.80;99.90;;;;;;6301914;22;20007;-84
2023/07/05 09:57:04;;;;;;;8.95;1.70;;;13.90;99.90;;;;;;6274128;22;20023;-84
2023/07/05 09:59:32;;;;;;;11.98;1.65;;;14.10;99.90;;;;;;6273663;22;20064;-84
2023/07/05 10:02:03;;;;;;;7.35;1.08;;;14.30;99.90;;;;;;6248036;22;20011;-86
2023/07/05 10:04:29;;;;;;;6.30;1.20;;;14.40;99.90;;;;;;6304243;22;20021;-88
2023/07/05 10:07:02;;;;;;;8.75;1.10;;;14.60;99.90;;;;;;6248821;22;20492;-85
2023/07/05 10:09:28;;;;;;;9.93;1.00;;;14.80;99.90;;;;;;6276169;22;20012;-85
2023/07/05 10:11:59;;;;;;;4.78;0.40;;;15.00;99.90;;;;;;6276204;22;20064;-85
2023/07/05 10:14:32;;;;;;;2.47;0.45;;;15.20;99.90;;;;;;6304497;22;20010;-85
2023/07/05 10:17:05;;;;;;;5.50;0.50;;;15.40;99.90;;;;;;6264220;22;20021;-89
2023/07/05 10:19:39;;;;;;;7.25;0.70;;;15.50;99.90;;;;;;6242131;23;20311;-91
2023/07/05 10:22:16;;;;;;;10.13;0.93;;;15.60;99.90;;;;;;6241788;23;20020;-91
2023/07/05 10:24:48;;;;;;;6.18;0.65;;;15.70;99.90;;;;;;6242438;23;20070;-90
2023/07/05 10:27:33;;;;;;;6.50;0.40;;;15.70;99.90;;;;;;6240740;23;20008;-89
2023/07/05 10:30:06;;;;;;;3.47;0.47;;;15.80;99.90;;;;;;6241050;23;20016;-90
2023/07/05 10:32:32;;;;;;;4.90;0.52;;;15.80;99.90;;;;;;6214620;23;20012;-90
2023/07/05 10:35:00;;;;;;;6.93;0.70;;;15.90;99.90;;;;;;6215458;23;20062;-90
2023/07/05 10:37:33;;;;;;;5.78;0.80;;;16.00;99.90;;;;;;6245345;23;20012;-90
2023/07/05 10:40:08;;;;;;;5.53;0.50;;;16.10;99.90;;;;;;6249041;23;20016;-90
2023/07/05 10:42:38;;;;;;;8.35;0.80;;;16.20;99.90;;;;;;6244843;23;20012;-88
2023/07/05 10:45:05;;;;;;;6.43;0.75;;;16.20;99.90;;;;;;6244527;23;20047;-89
2023/07/05 10:47:32;;;;;;;4.40;0.63;;;16.20;99.90;;;;;;6241855;23;20012;-90
2023/07/05 10:50:06;;;;;;;8.43;0.65;;;16.40;99.90;;;;;;6214670;23;20048;-91
2023/07/05 10:52:36;;;;;;;;;;;16.50;99.90;;;;;;6241563;23;20505;-89
2023/07/05 10:55:19;;;;;;;6.72;0.70;;;16.70;99.90;;;;;;6239399;23;19916;-89
2023/07/05 10:57:54;;;;;;;5.18;0.70;;;16.90;99.90;;;;;;6241773;23;20035;-88
2023/07/05 11:00:28;;;;;;;8.25;0.75;;;17.10;99.90;;;;;;6240435;23;20435;-85
2023/07/05 11:03:34;;;;;;;4.53;0.90;;;17.20;99.90;;;;;;6240348;23;20016;-85
2023/07/05 11:06:03;;;;;;;4.18;0.52;;;17.20;99.90;;;;;;6239244;23;20012;-85
2023/07/05 11:08:33;;;;;;;5.18;1.10;;;17.10;99.90;;;;;;6239294;23;20028;-86
2023/07/05 11:11:04;;;;;;;5.15;0.73;;;17.10;99.90;;;;;;6240801;23;20078;-86
2023/07/05 11:13:30;;;;;;;6.43;0.70;;;17.10;99.90;;;;;;6239172;23;20114;-84
2023/07/05 11:15:57;;;;;;;5.80;0.55;;;17.20;99.90;;;;;;6239521;23;20087;-85
2023/07/05 11:18:23;;;;;;;6.03;0.75;;;17.40;99.90;;;;;;6288624;22;20056;-86
2023/07/05 11:20:51;;;;;;;6.18;0.93;;;17.50;99.90;;;;;;6249604;22;20015;-84
2023/07/05 11:23:56;;;;;;;8.38;0.98;;;17.60;99.90;;;;;;6302794;22;20015;-84
2023/07/05 11:26:29;;;;;;;7.30;0.97;;;17.70;99.90;;;;;;6247215;22;20034;-84
2023/07/05 11:28:55;;;;;;;4.68;0.80;;;17.70;99.90;;;;;;6274271;22;20015;-84
2023/07/05 11:31:29;;;;;;;4.53;0.70;;;17.80;99.90;;;;;;6275542;22;20061;-84
2023/07/05 11:34:23;;;;;;;7.07;0.63;;;17.80;99.90;;;;;;6275820;22;20468;-84
2023/07/05 11:37:13;;;;;;;8.27;1.10;;;18.00;99.90;;;;;;6275117;22;20019;-85
2023/07/05 11:39:42;;;;;;;3.55;0.52;;;18.10;99.90;;;;;;6275789;22;20019;-85
2023/07/05 11:42:17;;;;;;;4.95;0.55;;;18.20;99.90;;;;;;6274699;22;20011;-84
2023/07/05 11:45:01;;;;;;;;;;;18.30;99.90;;;;;;6276079;22;20018;-85
2023/07/05 11:47:33;;;;;;;5.40;1.35;;;18.40;99.90;;;;;;6302592;22;19915;-86
2023/07/05 11:50:07;;;;;;;4.72;0.80;;;18.40;99.90;;;;;;6275288;22;20023;-86
2023/07/05 11:52:35;;;;;;;7.90;1.10;;;18.20;99.90;;;;;;6250141;22;20019;-82
2023/07/05 11:55:16;;;;;;;6.82;0.90;;;17.90;99.90;;;;;;6274422;22;20527;-82
2023/07/05 11:58:00;;;;;;;5.15;0.70;;;17.80;99.90;;;;;;6247937;22;20065;-87
2023/07/05 12:00:44;;;;;;;10.13;1.20;;;17.80;99.90;;;;;;6302303;22;20011;-84
2023/07/05 12:03:18;;;;;;;8.55;1.77;;;17.90;99.90;;;;;;6273171;22;20425;-84
2023/07/05 12:05:44;;;;;;;8.23;1.67;;;17.90;99.90;;;;;;6275049;22;20744;-84
2023/07/05 12:08:15;;;;;;;5.00;0.70;;;17.90;99.90;;;;;;6273010;22;20022;-87
2023/07/05 12:11:00;;;;;;;7.53;1.23;;;17.80;99.90;;;;;;6274690;22;20019;-87
2023/07/05 12:13:30;;;;;;;7.35;1.20;;;17.60;99.90;;;;;;6275204;22;20015;-85
2023/07/05 12:15:57;;;;;;;7.00;1.60;;;17.40;99.90;;;;;;6273768;22;20019;-84
2023/07/05 12:18:23;;;;;;;6.90;1.25;;;17.00;99.90;;;;;;6273304;22;20007;-83
2023/07/05 12:20:54;;;;;;;5.35;1.20;;;16.70;99.90;;;;;;6272801;22;20405;-84
2023/07/05 12:23:23;;;;;;;6.47;1.27;;;16.40;99.90;;;;;;6249562;22;20011;-82
2023/07/05 12:26:02;;;;;;;6.15;1.15;;;16.20;99.90;;;;;;6247645;22;20086;-84
2023/07/05 12:28:30;;;;;;;4.53;1.02;;;16.00;99.90;;;;;;6301191;22;20338;-82
2023/07/05 12:31:03;;;;;;;4.50;1.42;;;15.80;99.90;;;;;;6300894;22;20026;-83
2023/07/05 12:33:34;;;;;;;5.30;1.20;;;15.70;99.90;;;;;;6274614;22;20019;-83
2023/07/05 12:36:18;;;;;;;6.10;1.65;;;15.50;99.90;;;;;;6301547;22;20015;-84
2023/07/05 12:38:48;;;;;;;6.68;1.52;;;15.40;99.90;;;;;;6273659;22;20492;-82
2023/07/05 12:41:32;;;;;;;7.47;1.20;;;15.30;99.90;;;;;;6273699;22;20022;-81
2023/07/05 12:44:03;;;;;;;4.35;0.88;;;15.20;99.90;;;;;;6301911;22;20426;-80
2023/07/05 12:46:31;;;;;;;5.25;0.93;;;15.00;99.90;;;;;;6301266;22;20427;-80
2023/07/05 12:49:12;;;;;;;3.95;1.30;;;14.90;99.90;;;;;;6300641;22;20011;-81
2023/07/05 12:51:54;;;;;;;7.03;1.27;;;14.90;99.90;;;;;;6274310;22;20015;-83
2023/07/05 12:54:21;;;;;;;6.65;1.30;;;14.80;99.90;;;;;;6249033;22;20015;-83
2023/07/05 12:56:49;;;;;;;6.13;1.42;;;14.80;99.90;;;;;;6273607;22;20086;-83